sensor_id;sensor_type;location;lat;lon;timestamp;temperature;humidity
29663;DHT22;16578;53.266;7.920;2023-09-19T00:01:06;20.50;75.90
29663;DHT22;16578;53.266;7.920;2023-09-19T00:03:34;20.50;76.80
29663;DHT22;16578;53.266;7.920;2023-09-19T00:06:01;20.50;76.00
29663;DHT22;16578;53.266;7.920;2023-09-19T00:08:26;20.50;75.90
29663;DHT22;16578;53.266;7.920;2023-09-19T00:10:54;20.50;75.90
29663;DHT22;16578;53.266;7.920;2023-09-19T00:13:20;20.50;76.00
29663;DHT22;16578;53.266;7.920;2023-09-19T00:15:47;20.50;76.00
29663;DHT22;16578;53.266;7.920;2023-09-19T00:18:17;20.50;76.00
29663;DHT22;16578;53.266;7.920;2023-09-19T00:20:44;20.40;75.90
29663;DHT22;16578;53.266;7.920;2023-09-19T00:23:13;20.40;75.90
29663;DHT22;16578;53.266;7.920;2023-09-19T00:25:39;20.40;75.80
29663;DHT22;16578;53.266;7.920;2023-09-19T00:28:06;20.40;75.90
29663;DHT22;16578;53.266;7.920;2023-09-19T00:30:33;20.40;75.90
29663;DHT22;16578;53.266;7.920;2023-09-19T00:32:59;20.40;75.90
29663;DHT22;16578;53.266;7.920;2023-09-19T00:35:24;20.40;75.90
29663;DHT22;16578;53.266;7.920;2023-09-19T00:37:50;20.30;75.80
29663;DHT22;16578;53.266;7.920;2023-09-19T00:40:16;20.30;75.80
29663;DHT22;16578;53.266;7.920;2023-09-19T00:42:46;20.30;75.80
29663;DHT22;16578;53.266;7.920;2023-09-19T00:45:13;20.30;75.60
29663;DHT22;16578;53.266;7.920;2023-09-19T00:47:41;20.20;75.70
29663;DHT22;16578;53.266;7.920;2023-09-19T00:50:08;20.20;75.70
29663;DHT22;16578;53.266;7.920;2023-09-19T00:52:35;20.20;75.70
29663;DHT22;16578;53.266;7.920;2023-09-19T00:55:06;20.10;75.80
29663;DHT22;16578;53.266;7.920;2023-09-19T00:57:33;20.10;75.90
29663;DHT22;16578;53.266;7.920;2023-09-19T01:00:00;20.10;75.90
29663;DHT22;16578;53.266;7.920;2023-09-19T01:02:31;20.10;76.10
29663;DHT22;16578;53.266;7.920;2023-09-19T01:04:57;20.10;76.00
29663;DHT22;16578;53.266;7.920;2023-09-19T01:07:23;20.10;76.10
29663;DHT22;16578;53.266;7.920;2023-09-19T01:09:49;20.10;76.10
29663;DHT22;16578;53.266;7.920;2023-09-19T01:12:22;20.10;76.10
29663;DHT22;16578;53.266;7.920;2023-09-19T01:15:06;20.10;76.10
29663;DHT22;16578;53.266;7.920;2023-09-19T01:17:48;20.10;76.00
29663;DHT22;16578;53.266;7.920;2023-09-19T01:20:19;20.10;76.10
29663;DHT22;16578;53.266;7.920;2023-09-19T01:23:11;20.00;76.00
29663;DHT22;16578;53.266;7.920;2023-09-19T01:28:34;20.00;75.60
29663;DHT22;16578;53.266;7.920;2023-09-19T01:31:09;20.00;75.60
29663;DHT22;16578;53.266;7.920;2023-09-19T01:33:54;19.90;75.50
29663;DHT22;16578;53.266;7.920;2023-09-19T01:36:31;19.90;75.40
29663;DHT22;16578;53.266;7.920;2023-09-19T01:39:00;19.90;75.40
29663;DHT22;16578;53.266;7.920;2023-09-19T01:41:56;19.80;75.40
29663;DHT22;16578;53.266;7.920;2023-09-19T01:44:38;19.80;75.20
29663;DHT22;16578;53.266;7.920;2023-09-19T01:47:17;19.80;75.40
29663;DHT22;16578;53.266;7.920;2023-09-19T01:49:55;19.70;75.40
29663;DHT22;16578;53.266;7.920;2023-09-19T01:52:23;19.70;75.30
29663;DHT22;16578;53.266;7.920;2023-09-19T01:54:52;19.60;75.30
29663;DHT22;16578;53.266;7.920;2023-09-19T01:57:29;19.60;75.40
29663;DHT22;16578;53.266;7.920;2023-09-19T02:00:06;19.60;75.20
29663;DHT22;16578;53.266;7.920;2023-09-19T02:02:37;19.60;74.90
29663;DHT22;16578;53.266;7.920;2023-09-19T02:05:04;19.50;74.90
29663;DHT22;16578;53.266;7.920;2023-09-19T02:07:30;19.50;74.90
29663;DHT22;16578;53.266;7.920;2023-09-19T02:10:00;19.50;74.90
29663;DHT22;16578;53.266;7.920;2023-09-19T02:12:26;19.40;74.80
29663;DHT22;16578;53.266;7.920;2023-09-19T02:14:52;19.40;74.80
29663;DHT22;16578;53.266;7.920;2023-09-19T02:17:18;19.40;74.70
29663;DHT22;16578;53.266;7.920;2023-09-19T02:19:44;19.40;74.70
29663;DHT22;16578;53.266;7.920;2023-09-19T02:22:10;19.30;74.60
29663;DHT22;16578;53.266;7.920;2023-09-19T02:24:37;19.30;74.60
29663;DHT22;16578;53.266;7.920;2023-09-19T02:27:03;19.30;74.60
29663;DHT22;16578;53.266;7.920;2023-09-19T02:29:31;19.20;74.60
29663;DHT22;16578;53.266;7.920;2023-09-19T02:31:57;19.20;74.70
29663;DHT22;16578;53.266;7.920;2023-09-19T02:34:23;19.20;74.70
29663;DHT22;16578;53.266;7.920;2023-09-19T02:36:50;19.10;74.60
29663;DHT22;16578;53.266;7.920;2023-09-19T02:39:17;19.10;74.50
29663;DHT22;16578;53.266;7.920;2023-09-19T02:41:43;19.10;75.40
29663;DHT22;16578;53.266;7.920;2023-09-19T02:44:09;19.10;75.50
29663;DHT22;16578;53.266;7.920;2023-09-19T02:46:34;19.10;74.70
29663;DHT22;16578;53.266;7.920;2023-09-19T02:49:02;19.00;74.60
29663;DHT22;16578;53.266;7.920;2023-09-19T02:51:30;19.00;74.80
29663;DHT22;16578;53.266;7.920;2023-09-19T02:53:56;19.00;74.90
29663;DHT22;16578;53.266;7.920;2023-09-19T02:56:22;19.00;75.00
29663;DHT22;16578;53.266;7.920;2023-09-19T02:58:48;18.90;74.80
29663;DHT22;16578;53.266;7.920;2023-09-19T03:01:13;18.90;74.90
29663;DHT22;16578;53.266;7.920;2023-09-19T03:03:40;18.90;74.90
29663;DHT22;16578;53.266;7.920;2023-09-19T03:06:06;18.90;75.00
29663;DHT22;16578;53.266;7.920;2023-09-19T03:08:34;18.90;75.00
29663;DHT22;16578;53.266;7.920;2023-09-19T03:11:03;18.80;75.10
29663;DHT22;16578;53.266;7.920;2023-09-19T03:13:29;18.80;75.10
29663;DHT22;16578;53.266;7.920;2023-09-19T03:15:56;18.80;75.10
29663;DHT22;16578;53.266;7.920;2023-09-19T03:18:24;18.80;75.20
29663;DHT22;16578;53.266;7.920;2023-09-19T03:20:55;18.80;75.30
29663;DHT22;16578;53.266;7.920;2023-09-19T03:23:20;18.80;75.30
29663;DHT22;16578;53.266;7.920;2023-09-19T03:25:46;18.80;75.50
29663;DHT22;16578;53.266;7.920;2023-09-19T03:28:13;18.80;75.60
29663;DHT22;16578;53.266;7.920;2023-09-19T03:30:38;18.80;75.60
29663;DHT22;16578;53.266;7.920;2023-09-19T03:33:04;18.80;75.70
29663;DHT22;16578;53.266;7.920;2023-09-19T03:35:31;18.70;75.70
29663;DHT22;16578;53.266;7.920;2023-09-19T03:37:57;18.70;75.70
29663;DHT22;16578;53.266;7.920;2023-09-19T03:40:22;18.70;75.80
29663;DHT22;16578;53.266;7.920;2023-09-19T03:42:48;18.70;76.00
29663;DHT22;16578;53.266;7.920;2023-09-19T03:45:14;18.70;76.00
29663;DHT22;16578;53.266;7.920;2023-09-19T03:47:41;18.60;76.00
29663;DHT22;16578;53.266;7.920;2023-09-19T03:50:07;18.60;76.10
29663;DHT22;16578;53.266;7.920;2023-09-19T03:52:44;18.60;76.20
29663;DHT22;16578;53.266;7.920;2023-09-19T03:55:09;18.60;77.10
29663;DHT22;16578;53.266;7.920;2023-09-19T03:57:36;18.60;76.30
29663;DHT22;16578;53.266;7.920;2023-09-19T04:00:03;18.60;76.30
29663;DHT22;16578;53.266;7.920;2023-09-19T04:02:30;18.50;76.30
29663;DHT22;16578;53.266;7.920;2023-09-19T04:04:58;18.50;76.60
29663;DHT22;16578;53.266;7.920;2023-09-19T04:07:24;18.50;76.40
29663;DHT22;16578;53.266;7.920;2023-09-19T04:09:51;18.50;76.40
29663;DHT22;16578;53.266;7.920;2023-09-19T04:12:19;18.50;76.50
29663;DHT22;16578;53.266;7.920;2023-09-19T04:14:44;18.50;76.50
29663;DHT22;16578;53.266;7.920;2023-09-19T04:17:10;18.50;76.50
29663;DHT22;16578;53.266;7.920;2023-09-19T04:19:36;18.50;76.40
29663;DHT22;16578;53.266;7.920;2023-09-19T04:22:02;18.50;76.40
29663;DHT22;16578;53.266;7.920;2023-09-19T04:24:28;18.50;76.40
29663;DHT22;16578;53.266;7.920;2023-09-19T04:26:54;18.50;76.40
29663;DHT22;16578;53.266;7.920;2023-09-19T04:29:20;18.50;76.40
29663;DHT22;16578;53.266;7.920;2023-09-19T04:31:45;18.50;76.40
29663;DHT22;16578;53.266;7.920;2023-09-19T04:34:11;18.40;76.20
29663;DHT22;16578;53.266;7.920;2023-09-19T04:36:43;18.40;76.30
29663;DHT22;16578;53.266;7.920;2023-09-19T04:39:09;18.40;76.30
29663;DHT22;16578;53.266;7.920;2023-09-19T04:41:36;18.40;76.30
29663;DHT22;16578;53.266;7.920;2023-09-19T04:44:06;18.40;76.30
29663;DHT22;16578;53.266;7.920;2023-09-19T04:46:33;18.40;76.30
29663;DHT22;16578;53.266;7.920;2023-09-19T04:48:59;18.40;77.10
29663;DHT22;16578;53.266;7.920;2023-09-19T04:51:24;18.40;76.30
29663;DHT22;16578;53.266;7.920;2023-09-19T04:53:52;18.40;76.30
29663;DHT22;16578;53.266;7.920;2023-09-19T04:56:17;18.30;76.20
29663;DHT22;16578;53.266;7.920;2023-09-19T04:58:44;18.30;76.30
29663;DHT22;16578;53.266;7.920;2023-09-19T05:01:09;18.40;76.40
29663;DHT22;16578;53.266;7.920;2023-09-19T05:03:37;18.40;76.40
29663;DHT22;16578;53.266;7.920;2023-09-19T05:06:03;18.30;76.30
29663;DHT22;16578;53.266;7.920;2023-09-19T05:08:30;18.30;76.40
29663;DHT22;16578;53.266;7.920;2023-09-19T05:10:56;18.30;76.40
29663;DHT22;16578;53.266;7.920;2023-09-19T05:13:22;18.30;76.40
29663;DHT22;16578;53.266;7.920;2023-09-19T05:15:49;18.30;76.40
29663;DHT22;16578;53.266;7.920;2023-09-19T05:18:15;18.30;76.40
29663;DHT22;16578;53.266;7.920;2023-09-19T05:20:41;18.30;76.50
29663;DHT22;16578;53.266;7.920;2023-09-19T05:23:07;18.30;76.50
29663;DHT22;16578;53.266;7.920;2023-09-19T05:25:35;18.30;76.50
29663;DHT22;16578;53.266;7.920;2023-09-19T05:28:05;18.30;76.60
29663;DHT22;16578;53.266;7.920;2023-09-19T05:30:31;18.20;76.60
29663;DHT22;16578;53.266;7.920;2023-09-19T05:32:57;18.20;76.50
29663;DHT22;16578;53.266;7.920;2023-09-19T05:35:23;18.20;76.60
29663;DHT22;16578;53.266;7.920;2023-09-19T05:37:53;18.20;76.60
29663;DHT22;16578;53.266;7.920;2023-09-19T05:40:20;18.20;76.60
29663;DHT22;16578;53.266;7.920;2023-09-19T05:42:46;18.20;76.60
29663;DHT22;16578;53.266;7.920;2023-09-19T05:45:13;18.20;76.70
29663;DHT22;16578;53.266;7.920;2023-09-19T05:47:41;18.20;76.80
29663;DHT22;16578;53.266;7.920;2023-09-19T05:50:11;18.20;77.80
29663;DHT22;16578;53.266;7.920;2023-09-19T05:52:37;18.20;77.00
29663;DHT22;16578;53.266;7.920;2023-09-19T05:55:06;18.20;77.00
29663;DHT22;16578;53.266;7.920;2023-09-19T05:57:33;18.20;77.10
29663;DHT22;16578;53.266;7.920;2023-09-19T05:59:59;18.20;77.30
29663;DHT22;16578;53.266;7.920;2023-09-19T06:02:24;18.20;77.30
29663;DHT22;16578;53.266;7.920;2023-09-19T06:04:54;18.20;77.40
29663;DHT22;16578;53.266;7.920;2023-09-19T06:07:21;18.30;77.50
29663;DHT22;16578;53.266;7.920;2023-09-19T06:09:47;18.30;77.60
29663;DHT22;16578;53.266;7.920;2023-09-19T06:12:13;18.30;77.60
29663;DHT22;16578;53.266;7.920;2023-09-19T06:14:42;18.30;77.70
29663;DHT22;16578;53.266;7.920;2023-09-19T06:17:08;18.30;77.80
29663;DHT22;16578;53.266;7.920;2023-09-19T06:19:34;18.30;77.80
29663;DHT22;16578;53.266;7.920;2023-09-19T06:21:59;18.30;77.80
29663;DHT22;16578;53.266;7.920;2023-09-19T06:24:25;18.30;77.80
29663;DHT22;16578;53.266;7.920;2023-09-19T06:26:51;18.30;77.80
29663;DHT22;16578;53.266;7.920;2023-09-19T06:29:18;18.30;77.90
29663;DHT22;16578;53.266;7.920;2023-09-19T06:31:46;18.30;78.00
29663;DHT22;16578;53.266;7.920;2023-09-19T06:34:12;18.30;78.10
29663;DHT22;16578;53.266;7.920;2023-09-19T06:36:39;18.30;78.10
29663;DHT22;16578;53.266;7.920;2023-09-19T06:39:06;18.30;78.10
29663;DHT22;16578;53.266;7.920;2023-09-19T06:41:32;18.30;78.20
29663;DHT22;16578;53.266;7.920;2023-09-19T06:43:57;18.30;78.20
29663;DHT22;16578;53.266;7.920;2023-09-19T06:46:23;18.40;78.30
29663;DHT22;16578;53.266;7.920;2023-09-19T06:48:50;18.30;78.20
29663;DHT22;16578;53.266;7.920;2023-09-19T06:51:18;18.40;78.20
29663;DHT22;16578;53.266;7.920;2023-09-19T06:53:43;18.40;78.20
29663;DHT22;16578;53.266;7.920;2023-09-19T06:56:09;18.40;78.10
29663;DHT22;16578;53.266;7.920;2023-09-19T06:58:35;18.40;78.10
29663;DHT22;16578;53.266;7.920;2023-09-19T07:01:02;18.40;78.30
29663;DHT22;16578;53.266;7.920;2023-09-19T07:03:28;18.40;78.30
29663;DHT22;16578;53.266;7.920;2023-09-19T07:05:54;18.40;78.30
29663;DHT22;16578;53.266;7.920;2023-09-19T07:08:21;18.50;78.30
29663;DHT22;16578;53.266;7.920;2023-09-19T07:10:47;18.50;78.20
29663;DHT22;16578;53.266;7.920;2023-09-19T07:13:19;18.50;79.00
29663;DHT22;16578;53.266;7.920;2023-09-19T07:15:45;18.50;78.10
29663;DHT22;16578;53.266;7.920;2023-09-19T07:18:16;18.50;79.00
29663;DHT22;16578;53.266;7.920;2023-09-19T07:20:43;18.60;78.10
29663;DHT22;16578;53.266;7.920;2023-09-19T07:23:18;18.60;78.00
29663;DHT22;16578;53.266;7.920;2023-09-19T07:25:45;18.60;77.90
29663;DHT22;16578;53.266;7.920;2023-09-19T07:28:12;18.60;77.80
29663;DHT22;16578;53.266;7.920;2023-09-19T07:30:37;18.60;77.70
29663;DHT22;16578;53.266;7.920;2023-09-19T07:33:04;18.60;77.60
29663;DHT22;16578;53.266;7.920;2023-09-19T07:35:31;18.60;77.50
29663;DHT22;16578;53.266;7.920;2023-09-19T07:37:57;18.60;77.30
29663;DHT22;16578;53.266;7.920;2023-09-19T07:40:24;18.60;77.40
29663;DHT22;16578;53.266;7.920;2023-09-19T07:42:52;18.70;77.40
29663;DHT22;16578;53.266;7.920;2023-09-19T07:45:17;18.70;77.30
29663;DHT22;16578;53.266;7.920;2023-09-19T07:47:50;18.70;77.10
29663;DHT22;16578;53.266;7.920;2023-09-19T07:50:17;18.70;76.90
29663;DHT22;16578;53.266;7.920;2023-09-19T07:52:45;18.70;76.80
29663;DHT22;16578;53.266;7.920;2023-09-19T07:55:10;18.70;76.80
29663;DHT22;16578;53.266;7.920;2023-09-19T07:57:37;18.70;76.80
29663;DHT22;16578;53.266;7.920;2023-09-19T08:00:03;18.80;76.80
29663;DHT22;16578;53.266;7.920;2023-09-19T08:02:40;18.80;76.70
29663;DHT22;16578;53.266;7.920;2023-09-19T08:05:12;18.80;76.60
29663;DHT22;16578;53.266;7.920;2023-09-19T08:07:41;18.80;76.60
29663;DHT22;16578;53.266;7.920;2023-09-19T08:10:08;18.80;76.60
29663;DHT22;16578;53.266;7.920;2023-09-19T08:12:39;18.80;76.50
29663;DHT22;16578;53.266;7.920;2023-09-19T08:15:18;18.90;76.60
29663;DHT22;16578;53.266;7.920;2023-09-19T08:17:45;18.90;76.40
29663;DHT22;16578;53.266;7.920;2023-09-19T08:20:11;18.90;76.20
29663;DHT22;16578;53.266;7.920;2023-09-19T08:22:52;18.90;76.10
29663;DHT22;16578;53.266;7.920;2023-09-19T08:25:23;19.00;76.00
29663;DHT22;16578;53.266;7.920;2023-09-19T08:27:50;19.00;76.10
29663;DHT22;16578;53.266;7.920;2023-09-19T08:30:17;19.10;76.20
29663;DHT22;16578;53.266;7.920;2023-09-19T08:32:43;19.10;76.10
29663;DHT22;16578;53.266;7.920;2023-09-19T08:35:10;19.10;76.10
29663;DHT22;16578;53.266;7.920;2023-09-19T08:37:36;19.20;76.20
29663;DHT22;16578;53.266;7.920;2023-09-19T08:40:02;19.20;76.00
29663;DHT22;16578;53.266;7.920;2023-09-19T08:42:28;19.30;75.60
29663;DHT22;16578;53.266;7.920;2023-09-19T08:44:55;19.30;75.50
29663;DHT22;16578;53.266;7.920;2023-09-19T08:47:33;19.30;75.30
29663;DHT22;16578;53.266;7.920;2023-09-19T08:50:18;19.40;75.20
29663;DHT22;16578;53.266;7.920;2023-09-19T08:52:46;19.40;75.20
29663;DHT22;16578;53.266;7.920;2023-09-19T08:55:13;19.40;74.70
29663;DHT22;16578;53.266;7.920;2023-09-19T08:57:46;19.40;74.60
29663;DHT22;16578;53.266;7.920;2023-09-19T09:00:14;19.40;74.80
29663;DHT22;16578;53.266;7.920;2023-09-19T09:02:42;19.40;75.00
29663;DHT22;16578;53.266;7.920;2023-09-19T09:05:09;19.40;75.30
29663;DHT22;16578;53.266;7.920;2023-09-19T09:07:37;19.50;75.10
29663;DHT22;16578;53.266;7.920;2023-09-19T09:10:04;19.60;74.90
29663;DHT22;16578;53.266;7.920;2023-09-19T09:12:30;19.60;75.70
29663;DHT22;16578;53.266;7.920;2023-09-19T09:14:56;19.60;74.70
29663;DHT22;16578;53.266;7.920;2023-09-19T09:17:23;19.70;74.60
29663;DHT22;16578;53.266;7.920;2023-09-19T09:19:49;19.70;74.30
29663;DHT22;16578;53.266;7.920;2023-09-19T09:22:14;19.70;74.30
29663;DHT22;16578;53.266;7.920;2023-09-19T09:24:55;19.70;74.30
29663;DHT22;16578;53.266;7.920;2023-09-19T09:27:24;19.80;74.00
29663;DHT22;16578;53.266;7.920;2023-09-19T09:29:51;19.80;74.20
29663;DHT22;16578;53.266;7.920;2023-09-19T09:34:57;19.80;73.70
29663;DHT22;16578;53.266;7.920;2023-09-19T09:37:23;19.80;73.50
29663;DHT22;16578;53.266;7.920;2023-09-19T09:39:54;19.90;73.90
29663;DHT22;16578;53.266;7.920;2023-09-19T09:42:30;19.90;73.90
29663;DHT22;16578;53.266;7.920;2023-09-19T09:45:16;20.00;73.70
29663;DHT22;16578;53.266;7.920;2023-09-19T09:47:47;20.00;73.40
29663;DHT22;16578;53.266;7.920;2023-09-19T09:50:28;20.00;73.40
29663;DHT22;16578;53.266;7.920;2023-09-19T09:53:23;20.00;73.20
29663;DHT22;16578;53.266;7.920;2023-09-19T09:56:05;20.00;72.80
29663;DHT22;16578;53.266;7.920;2023-09-19T09:58:40;20.00;72.80
29663;DHT22;16578;53.266;7.920;2023-09-19T10:01:14;20.00;72.90
29663;DHT22;16578;53.266;7.920;2023-09-19T10:03:43;20.00;73.00
29663;DHT22;16578;53.266;7.920;2023-09-19T10:06:11;20.00;73.00
29663;DHT22;16578;53.266;7.920;2023-09-19T10:09:06;20.00;72.90
29663;DHT22;16578;53.266;7.920;2023-09-19T10:11:47;20.10;73.10
29663;DHT22;16578;53.266;7.920;2023-09-19T10:14:20;20.00;73.30
29663;DHT22;16578;53.266;7.920;2023-09-19T10:16:49;20.10;73.40
29663;DHT22;16578;53.266;7.920;2023-09-19T10:19:23;20.10;73.40
29663;DHT22;16578;53.266;7.920;2023-09-19T10:21:55;20.20;73.30
29663;DHT22;16578;53.266;7.920;2023-09-19T10:24:22;20.20;73.40
29663;DHT22;16578;53.266;7.920;2023-09-19T10:26:50;20.20;73.20
29663;DHT22;16578;53.266;7.920;2023-09-19T10:29:17;20.20;73.10
29663;DHT22;16578;53.266;7.920;2023-09-19T10:31:44;20.30;73.20
29663;DHT22;16578;53.266;7.920;2023-09-19T10:34:14;20.30;73.20
29663;DHT22;16578;53.266;7.920;2023-09-19T10:36:45;20.40;72.90
29663;DHT22;16578;53.266;7.920;2023-09-19T10:39:15;20.40;72.70
29663;DHT22;16578;53.266;7.920;2023-09-19T10:41:50;20.40;72.60
29663;DHT22;16578;53.266;7.920;2023-09-19T10:44:25;20.40;72.30
29663;DHT22;16578;53.266;7.920;2023-09-19T10:46:52;20.40;71.90
29663;DHT22;16578;53.266;7.920;2023-09-19T10:49:21;20.50;72.10
29663;DHT22;16578;53.266;7.920;2023-09-19T10:51:49;20.50;72.00
29663;DHT22;16578;53.266;7.920;2023-09-19T10:54:21;20.60;71.80
29663;DHT22;16578;53.266;7.920;2023-09-19T10:56:52;20.60;71.30
29663;DHT22;16578;53.266;7.920;2023-09-19T10:59:19;20.60;71.30
29663;DHT22;16578;53.266;7.920;2023-09-19T11:01:53;20.60;71.00
29663;DHT22;16578;53.266;7.920;2023-09-19T11:04:32;20.60;70.80
29663;DHT22;16578;53.266;7.920;2023-09-19T11:07:06;20.70;70.70
29663;DHT22;16578;53.266;7.920;2023-09-19T11:09:53;20.70;70.80
29663;DHT22;16578;53.266;7.920;2023-09-19T11:15:07;20.70;70.80
29663;DHT22;16578;53.266;7.920;2023-09-19T11:17:38;20.80;70.90
29663;DHT22;16578;53.266;7.920;2023-09-19T11:30:45;20.90;70.10
29663;DHT22;16578;53.266;7.920;2023-09-19T11:43:51;21.00;69.50
29663;DHT22;16578;53.266;7.920;2023-09-19T11:46:17;21.00;69.50
29663;DHT22;16578;53.266;7.920;2023-09-19T11:48:48;21.00;69.40
29663;DHT22;16578;53.266;7.920;2023-09-19T11:51:21;21.00;69.10
29663;DHT22;16578;53.266;7.920;2023-09-19T11:53:55;21.00;69.00
29663;DHT22;16578;53.266;7.920;2023-09-19T11:56:22;21.10;69.00
29663;DHT22;16578;53.266;7.920;2023-09-19T11:58:52;21.10;69.20
29663;DHT22;16578;53.266;7.920;2023-09-19T12:01:27;21.00;69.50
29663;DHT22;16578;53.266;7.920;2023-09-19T12:03:56;21.10;69.20
29663;DHT22;16578;53.266;7.920;2023-09-19T12:06:23;21.20;68.70
29663;DHT22;16578;53.266;7.920;2023-09-19T12:08:49;21.20;68.50
29663;DHT22;16578;53.266;7.920;2023-09-19T12:11:17;21.20;68.50
29663;DHT22;16578;53.266;7.920;2023-09-19T12:13:47;21.20;68.50
29663;DHT22;16578;53.266;7.920;2023-09-19T12:16:17;21.20;68.20
29663;DHT22;16578;53.266;7.920;2023-09-19T12:18:48;21.30;67.90
29663;DHT22;16578;53.266;7.920;2023-09-19T12:21:33;21.30;68.00
29663;DHT22;16578;53.266;7.920;2023-09-19T12:24:06;21.30;67.60
29663;DHT22;16578;53.266;7.920;2023-09-19T12:26:42;21.30;68.00
29663;DHT22;16578;53.266;7.920;2023-09-19T12:29:13;21.40;67.90
29663;DHT22;16578;53.266;7.920;2023-09-19T12:31:56;21.40;68.00
29663;DHT22;16578;53.266;7.920;2023-09-19T12:37:14;21.40;67.90
29663;DHT22;16578;53.266;7.920;2023-09-19T12:39:53;21.50;67.90
29663;DHT22;16578;53.266;7.920;2023-09-19T12:42:25;21.40;68.00
29663;DHT22;16578;53.266;7.920;2023-09-19T12:44:57;21.50;67.30
29663;DHT22;16578;53.266;7.920;2023-09-19T12:47:26;21.50;67.30
29663;DHT22;16578;53.266;7.920;2023-09-19T12:50:05;21.50;67.10
29663;DHT22;16578;53.266;7.920;2023-09-19T12:52:39;21.50;67.00
29663;DHT22;16578;53.266;7.920;2023-09-19T12:55:05;21.50;67.30
29663;DHT22;16578;53.266;7.920;2023-09-19T12:57:33;21.50;67.30
29663;DHT22;16578;53.266;7.920;2023-09-19T13:00:04;21.50;67.30
29663;DHT22;16578;53.266;7.920;2023-09-19T13:02:37;21.60;66.90
29663;DHT22;16578;53.266;7.920;2023-09-19T13:05:03;21.60;66.90
29663;DHT22;16578;53.266;7.920;2023-09-19T13:07:45;21.60;66.70
29663;DHT22;16578;53.266;7.920;2023-09-19T13:10:13;21.60;66.40
29663;DHT22;16578;53.266;7.920;2023-09-19T13:12:41;21.60;66.90
29663;DHT22;16578;53.266;7.920;2023-09-19T13:15:10;21.60;67.00
29663;DHT22;16578;53.266;7.920;2023-09-19T13:17:44;21.60;67.10
29663;DHT22;16578;53.266;7.920;2023-09-19T13:20:30;21.60;67.00
29663;DHT22;16578;53.266;7.920;2023-09-19T13:22:58;21.60;66.40
29663;DHT22;16578;53.266;7.920;2023-09-19T13:25:25;21.60;66.60
29663;DHT22;16578;53.266;7.920;2023-09-19T13:27:54;21.60;66.40
29663;DHT22;16578;53.266;7.920;2023-09-19T13:30:25;21.60;66.40
29663;DHT22;16578;53.266;7.920;2023-09-19T13:33:05;21.60;66.30
29663;DHT22;16578;53.266;7.920;2023-09-19T13:35:32;21.60;66.20
29663;DHT22;16578;53.266;7.920;2023-09-19T13:37:58;21.60;66.10
29663;DHT22;16578;53.266;7.920;2023-09-19T13:40:23;21.60;66.10
29663;DHT22;16578;53.266;7.920;2023-09-19T13:42:53;21.50;66.00
29663;DHT22;16578;53.266;7.920;2023-09-19T13:45:19;21.50;66.20
29663;DHT22;16578;53.266;7.920;2023-09-19T13:47:47;21.60;66.50
29663;DHT22;16578;53.266;7.920;2023-09-19T13:50:13;21.50;67.10
29663;DHT22;16578;53.266;7.920;2023-09-19T13:52:39;21.50;66.80
29663;DHT22;16578;53.266;7.920;2023-09-19T13:55:05;21.50;66.50
29663;DHT22;16578;53.266;7.920;2023-09-19T13:57:32;21.60;66.30
29663;DHT22;16578;53.266;7.920;2023-09-19T13:59:58;21.50;66.10
29663;DHT22;16578;53.266;7.920;2023-09-19T14:02:24;21.50;66.30
29663;DHT22;16578;53.266;7.920;2023-09-19T14:04:53;21.50;66.30
29663;DHT22;16578;53.266;7.920;2023-09-19T14:07:19;21.50;66.10
29663;DHT22;16578;53.266;7.920;2023-09-19T14:09:45;21.50;66.30
29663;DHT22;16578;53.266;7.920;2023-09-19T14:12:11;21.50;66.40
29663;DHT22;16578;53.266;7.920;2023-09-19T14:14:37;21.50;66.30
29663;DHT22;16578;53.266;7.920;2023-09-19T14:17:06;21.50;66.30
29663;DHT22;16578;53.266;7.920;2023-09-19T14:19:32;21.50;66.50
29663;DHT22;16578;53.266;7.920;2023-09-19T14:21:58;21.50;66.50
29663;DHT22;16578;53.266;7.920;2023-09-19T14:24:24;21.50;66.50
29663;DHT22;16578;53.266;7.920;2023-09-19T14:26:50;21.50;66.40
29663;DHT22;16578;53.266;7.920;2023-09-19T14:29:16;21.50;66.50
29663;DHT22;16578;53.266;7.920;2023-09-19T14:31:42;21.50;66.40
29663;DHT22;16578;53.266;7.920;2023-09-19T14:34:08;21.50;66.40
29663;DHT22;16578;53.266;7.920;2023-09-19T14:36:36;21.50;66.30
29663;DHT22;16578;53.266;7.920;2023-09-19T14:39:01;21.50;66.40
29663;DHT22;16578;53.266;7.920;2023-09-19T14:41:27;21.50;66.40
29663;DHT22;16578;53.266;7.920;2023-09-19T14:43:53;21.50;66.60
29663;DHT22;16578;53.266;7.920;2023-09-19T14:46:20;21.50;66.50
29663;DHT22;16578;53.266;7.920;2023-09-19T14:48:46;21.50;66.60
29663;DHT22;16578;53.266;7.920;2023-09-19T14:51:13;21.50;66.60
29663;DHT22;16578;53.266;7.920;2023-09-19T14:53:42;21.50;66.50
29663;DHT22;16578;53.266;7.920;2023-09-19T14:56:09;21.50;66.50
29663;DHT22;16578;53.266;7.920;2023-09-19T14:58:35;21.40;66.40
29663;DHT22;16578;53.266;7.920;2023-09-19T15:01:08;21.40;66.30
29663;DHT22;16578;53.266;7.920;2023-09-19T15:03:38;21.50;66.20
29663;DHT22;16578;53.266;7.920;2023-09-19T15:06:06;21.50;66.50
29663;DHT22;16578;53.266;7.920;2023-09-19T15:08:38;21.40;66.50
29663;DHT22;16578;53.266;7.920;2023-09-19T15:11:04;21.50;66.60
29663;DHT22;16578;53.266;7.920;2023-09-19T15:13:32;21.50;66.70
29663;DHT22;16578;53.266;7.920;2023-09-19T15:18:28;21.50;66.50
29663;DHT22;16578;53.266;7.920;2023-09-19T15:20:55;21.50;66.40
29663;DHT22;16578;53.266;7.920;2023-09-19T15:23:20;21.50;66.40
29663;DHT22;16578;53.266;7.920;2023-09-19T15:25:50;21.50;66.40
29663;DHT22;16578;53.266;7.920;2023-09-19T15:28:15;21.60;66.20
29663;DHT22;16578;53.266;7.920;2023-09-19T15:30:41;21.60;66.00
29663;DHT22;16578;53.266;7.920;2023-09-19T15:33:06;21.60;65.80
29663;DHT22;16578;53.266;7.920;2023-09-19T15:35:32;21.60;66.00
29663;DHT22;16578;53.266;7.920;2023-09-19T15:37:58;21.60;66.20
29663;DHT22;16578;53.266;7.920;2023-09-19T15:40:26;21.60;65.90
29663;DHT22;16578;53.266;7.920;2023-09-19T15:42:54;21.60;65.90
29663;DHT22;16578;53.266;7.920;2023-09-19T15:45:19;21.60;65.90
29663;DHT22;16578;53.266;7.920;2023-09-19T15:47:45;21.60;65.90
29663;DHT22;16578;53.266;7.920;2023-09-19T15:50:11;21.60;66.00
29663;DHT22;16578;53.266;7.920;2023-09-19T15:52:39;21.60;65.90
29663;DHT22;16578;53.266;7.920;2023-09-19T15:55:06;21.60;65.80
29663;DHT22;16578;53.266;7.920;2023-09-19T15:57:38;21.60;65.80
29663;DHT22;16578;53.266;7.920;2023-09-19T16:00:05;21.60;65.90
29663;DHT22;16578;53.266;7.920;2023-09-19T16:02:38;21.60;65.90
29663;DHT22;16578;53.266;7.920;2023-09-19T16:05:03;21.60;65.90
29663;DHT22;16578;53.266;7.920;2023-09-19T16:07:31;21.60;65.80
29663;DHT22;16578;53.266;7.920;2023-09-19T16:09:56;21.60;65.60
29663;DHT22;16578;53.266;7.920;2023-09-19T16:12:22;21.60;65.60
29663;DHT22;16578;53.266;7.920;2023-09-19T16:14:48;21.60;65.60